LFPT METAR and TAF | Updated Today

LFPT METAR

Pontoise - Cormeilles-en-Vexin Airport

Observation time: 31 min. ago

LFPT 291130Z AUTO 36004KT 320V050 CAVOK 14/04 Q1016

Need help? Read our tutorial on how to read METARs or read the parsed version below.

Pontoise - Cormeilles-en-Vexin Airport (LFPT) METAR

  • Weather conditions on Sun, 29 May 2022 11:30:00 +0000 (31 min. ago):
  • Present conditions: Dry
  • Clouds: Clear skies
  • Visibility: Greater than 10 km
  • Wind: 360 degrees at 4 knots
  • Temperature: 14 celsius
  • Dew point: 4 celsius
  • Pressure: 1016 millibars
  • Remarks: None


Useful to know...